Time;durP1;ratioP1;P1;durP2;ratioP2;P2;SDS_P1;SDS_P2;PMS_P1;PMS_P2;Temp;Humidity;BMP_temperature;BMP_pressure;BME280_temperature;BME280_humidity;BME280_pressure;Samples;Min_cycle;Max_cycle;Signal;HPM_P1;HPM_P2
2021/07/10 00:00:12;;;;;;;21.10;7.92;;;;;;;21.11;62.46;101404.94;1843165;77;25733;-60
2021/07/10 00:02:42;;;;;;;17.62;6.78;;;;;;;21.09;62.14;101403.73;1835388;77;25642;-61
2021/07/10 00:05:14;;;;;;;16.77;7.20;;;;;;;21.10;62.11;101408.70;1835039;77;25910;-61
2021/07/10 00:07:43;;;;;;;20.15;6.40;;;;;;;21.09;61.85;101398.27;1835687;77;26477;-61
2021/07/10 00:10:14;;;;;;;12.85;6.25;;;;;;;21.04;61.93;101403.48;1843285;77;28311;-61
2021/07/10 00:12:41;;;;;;;14.63;6.70;;;;;;;21.00;62.02;101404.88;1835859;77;25887;-60
2021/07/10 00:15:12;;;;;;;13.80;6.37;;;;;;;20.94;62.25;101396.91;1835956;77;25822;-60
2021/07/10 00:17:39;;;;;;;12.23;6.30;;;;;;;20.88;62.13;101405.88;1829581;77;25731;-60
2021/07/10 00:20:09;;;;;;;15.40;5.55;;;;;;;20.81;62.32;101410.41;1838397;77;25752;-60
2021/07/10 00:22:36;;;;;;;14.15;5.95;;;;;;;20.76;62.36;101402.78;1831483;77;27439;-59
2021/07/10 00:25:10;;;;;;;14.18;5.05;;;;;;;20.72;62.63;101411.52;1838266;77;25816;-59
2021/07/10 00:27:39;;;;;;;15.78;6.08;;;;;;;20.66;63.05;101402.17;1810848;78;25810;-60
2021/07/10 00:30:09;;;;;;;14.10;5.22;;;;;;;20.61;63.39;101397.27;1820833;78;25973;-60
2021/07/10 00:32:36;;;;;;;11.15;6.10;;;;;;;20.58;63.61;101400.37;1814869;78;25942;-61
2021/07/10 00:35:06;;;;;;;19.50;6.47;;;;;;;20.54;63.45;101400.93;1824510;78;27460;-61
2021/07/10 00:37:35;;;;;;;12.45;6.25;;;;;;;20.53;63.66;101403.36;1821406;77;25699;-61
2021/07/10 00:40:05;;;;;;;15.65;5.95;;;;;;;20.52;64.24;101402.49;1824828;77;25683;-61
2021/07/10 00:42:34;;;;;;;20.02;6.22;;;;;;;20.53;63.95;101401.46;1823827;78;25769;-60
2021/07/10 00:45:03;;;;;;;17.45;6.90;;;;;;;20.55;63.84;101395.30;1828172;78;25720;-62
2021/07/10 00:47:30;;;;;;;18.52;6.58;;;;;;;20.55;63.82;101399.89;1829575;77;27411;-60
2021/07/10 00:49:56;;;;;;;22.42;6.78;;;;;;;20.56;64.15;101393.40;1821625;77;25753;-60
2021/07/10 00:52:23;;;;;;;14.60;6.12;;;;;;;20.57;64.08;101395.09;1821667;78;25750;-60
2021/07/10 00:54:50;;;;;;;14.25;6.05;;;;;;;20.53;64.34;101394.62;1825806;77;25481;-60
2021/07/10 00:57:18;;;;;;;16.17;5.70;;;;;;;20.54;63.96;101393.59;1822447;77;25845;-60
2021/07/10 00:59:46;;;;;;;12.98;6.10;;;;;;;20.55;64.04;101394.43;1825326;78;27516;-61
2021/07/10 01:02:14;;;;;;;11.18;5.22;;;;;;;20.53;64.27;101393.27;1827979;77;25694;-61
2021/07/10 01:04:41;;;;;;;12.53;4.90;;;;;;;20.50;64.37;101393.63;1825648;78;25752;-61
2021/07/10 01:07:09;;;;;;;22.85;5.45;;;;;;;20.45;64.34;101387.35;1829708;77;25711;-61
2021/07/10 01:09:36;;;;;;;12.00;5.22;;;;;;;20.43;64.20;101385.34;1827065;78;26279;-61
2021/07/10 01:12:04;;;;;;;14.55;4.62;;;;;;;20.41;64.17;101379.71;1827145;78;27449;-61
2021/07/10 01:14:32;;;;;;;15.03;4.55;;;;;;;20.41;64.30;101378.34;1829179;77;25805;-61
2021/07/10 01:16:59;;;;;;;9.63;5.25;;;;;;;20.40;64.39;101376.64;1831608;78;25757;-61
2021/07/10 01:19:27;;;;;;;8.85;4.22;;;;;;;20.39;64.36;101369.52;1834432;78;25636;-61
2021/07/10 01:21:57;;;;;;;10.65;4.90;;;;;;;20.38;64.19;101371.91;1826658;78;25698;-61
2021/07/10 01:24:25;;;;;;;11.65;4.40;;;;;;;20.36;64.23;101372.61;1829947;78;27466;-61
2021/07/10 01:26:53;;;;;;;13.55;4.45;;;;;;;20.32;63.84;101366.14;1828852;77;25757;-61
2021/07/10 01:29:20;;;;;;;12.82;5.80;;;;;;;20.27;63.78;101369.95;1826590;77;25709;-61
2021/07/10 01:31:48;;;;;;;9.63;4.35;;;;;;;20.24;63.78;101368.95;1829865;78;25718;-61
2021/07/10 01:34:14;;;;;;;8.30;4.12;;;;;;;20.20;64.03;101365.41;1820216;78;25716;-61
2021/07/10 01:36:43;;;;;;;12.43;4.85;;;;;;;20.16;64.16;101366.30;1824804;77;27445;-61
2021/07/10 01:39:11;;;;;;;15.25;3.80;;;;;;;20.12;64.25;101364.99;1825642;78;25428;-61
2021/07/10 01:41:47;;;;;;;13.50;4.92;;;;;;;20.06;64.37;101369.31;1824279;78;25750;-61
2021/07/10 01:44:14;;;;;;;15.18;4.30;;;;;;;20.01;64.42;101372.59;1829454;77;25663;-61
2021/07/10 01:46:41;;;;;;;6.50;3.85;;;;;;;19.94;64.54;101368.04;1824602;78;25522;-61
2021/07/10 01:49:08;;;;;;;9.40;3.90;;;;;;;19.89;64.38;101368.59;1831262;78;29587;-61
2021/07/10 01:51:36;;;;;;;11.83;4.60;;;;;;;19.82;65.26;101369.80;1825687;78;25709;-61
2021/07/10 01:54:03;;;;;;;9.05;3.92;;;;;;;19.75;64.90;101364.74;1827275;78;25717;-61
2021/07/10 01:56:31;;;;;;;14.83;4.37;;;;;;;19.73;65.26;101363.23;1827268;78;25805;-61
2021/07/10 01:58:58;;;;;;;7.83;3.90;;;;;;;19.69;65.43;101371.77;1829036;78;25836;-61
2021/07/10 02:01:25;;;;;;;6.40;4.12;;;;;;;19.67;65.71;101371.13;1827013;78;28148;-61
2021/07/10 02:03:52;;;;;;;11.57;3.40;;;;;;;19.63;65.86;101369.78;1828353;78;25694;-61
2021/07/10 02:06:19;;;;;;;16.62;3.95;;;;;;;19.63;65.63;101368.42;1829756;77;25721;-61
2021/07/10 02:08:46;;;;;;;13.65;4.42;;;;;;;19.62;65.67;101362.63;1830151;77;25798;-61
2021/07/10 02:11:14;;;;;;;8.43;3.72;;;;;;;19.65;65.63;101370.95;1834906;78;25774;-61
2021/07/10 02:13:42;;;;;;;13.62;3.87;;;;;;;19.67;65.67;101365.67;1829931;77;27385;-60
2021/07/10 02:16:13;;;;;;;7.60;4.03;;;;;;;19.69;65.64;101369.05;1826746;77;25772;-61
2021/07/10 02:18:40;;;;;;;9.48;4.10;;;;;;;19.70;65.47;101364.45;1825932;78;25685;-62
2021/07/10 02:21:09;;;;;;;11.73;3.77;;;;;;;19.69;65.31;101364.12;1831074;78;26173;-61
2021/07/10 02:23:36;;;;;;;11.15;3.72;;;;;;;19.68;65.31;101357.79;1832083;77;25783;-61
2021/07/10 02:26:03;;;;;;;11.00;3.83;;;;;;;19.68;65.37;101353.70;1830702;78;27503;-61
2021/07/10 02:28:31;;;;;;;13.48;4.55;;;;;;;19.66;65.45;101355.78;1836212;78;25804;-61
2021/07/10 02:30:58;;;;;;;13.28;4.25;;;;;;;19.67;65.46;101364.31;1828629;78;25603;-62
2021/07/10 02:33:25;;;;;;;12.75;4.28;;;;;;;19.64;65.35;101367.39;1829822;78;27631;-60
2021/07/10 02:35:53;;;;;;;14.47;4.80;;;;;;;19.54;64.92;101367.61;1826143;78;25691;-61
2021/07/10 02:38:19;;;;;;;10.70;3.98;;;;;;;19.52;64.99;101365.61;1825894;78;27464;-61
2021/07/10 02:40:47;;;;;;;9.03;3.90;;;;;;;19.51;64.88;101362.53;1826274;78;25756;-61
2021/07/10 02:43:15;;;;;;;8.23;5.62;;;;;;;19.47;64.71;101354.89;1830521;77;25835;-60
2021/07/10 02:45:43;;;;;;;10.93;4.40;;;;;;;19.44;64.66;101355.24;1834338;77;25804;-61
2021/07/10 02:48:12;;;;;;;11.18;4.80;;;;;;;19.38;64.67;101353.59;1828567;77;25790;-61
2021/07/10 02:50:42;;;;;;;16.25;4.47;;;;;;;19.36;64.67;101358.36;1832165;77;27442;-61
2021/07/10 02:53:11;;;;;;;17.25;4.17;;;;;;;19.32;64.82;101355.64;1830329;77;25728;-61
2021/07/10 02:55:38;;;;;;;12.60;4.25;;;;;;;19.30;64.96;101364.55;1824579;77;25932;-61
2021/07/10 02:58:06;;;;;;;6.90;4.37;;;;;;;19.30;65.04;101366.41;1824224;78;25698;-61
2021/07/10 03:00:35;;;;;;;11.93;4.78;;;;;;;19.26;65.18;101365.92;1829255;78;26150;-62
2021/07/10 03:03:08;;;;;;;11.45;3.98;;;;;;;19.26;65.69;101361.00;1829075;77;27525;-61
2021/07/10 03:05:39;;;;;;;10.13;4.33;;;;;;;19.28;65.84;101358.91;1794693;78;25805;-60
2021/07/10 03:08:06;;;;;;;13.45;4.35;;;;;;;19.29;65.95;101350.58;1826003;78;25773;-60
2021/07/10 03:10:33;;;;;;;15.30;4.70;;;;;;;19.32;66.02;101342.01;1828065;78;25852;-60
2021/07/10 03:13:00;;;;;;;15.25;4.05;;;;;;;19.36;66.10;101360.26;1830833;77;25706;-61
2021/07/10 03:15:29;;;;;;;10.32;4.58;;;;;;;19.38;66.19;101350.86;1826647;77;28260;-60
2021/07/10 03:17:56;;;;;;;12.82;4.47;;;;;;;19.44;66.28;101353.38;1829180;78;25721;-60
2021/07/10 03:20:25;;;;;;;16.05;4.40;;;;;;;19.48;66.24;101351.97;1831154;77;25727;-61
2021/07/10 03:22:53;;;;;;;12.23;4.00;;;;;;;19.55;66.39;101349.38;1822738;78;26170;-61
2021/07/10 03:25:20;;;;;;;11.33;4.20;;;;;;;19.61;66.06;101349.17;1833533;78;25519;-61
2021/07/10 03:27:50;;;;;;;13.80;4.00;;;;;;;19.66;65.96;101355.78;1823703;77;27846;-60
2021/07/10 03:30:20;;;;;;;12.15;4.20;;;;;;;19.70;65.79;101351.64;1825367;78;25775;-61
2021/07/10 03:32:48;;;;;;;18.25;4.08;;;;;;;19.77;65.75;101344.08;1830321;78;25473;-60
2021/07/10 03:35:16;;;;;;;9.18;4.05;;;;;;;19.79;65.66;101345.62;1828446;78;26294;-60
2021/07/10 03:37:51;;;;;;;23.27;5.10;;;;;;;19.85;65.79;101351.73;1830156;78;25789;-62
2021/07/10 03:40:23;;;;;;;13.98;4.35;;;;;;;19.91;65.61;101352.88;1835213;78;27465;-62
2021/07/10 03:42:52;;;;;;;13.28;4.12;;;;;;;19.96;65.40;101351.80;1828707;77;25754;-61
2021/07/10 03:45:22;;;;;;;9.18;4.03;;;;;;;20.01;65.23;101348.02;1771113;78;25690;-62
2021/07/10 03:47:54;;;;;;;8.98;4.22;;;;;;;20.04;65.16;101337.77;1827718;77;25696;-62
2021/07/10 03:50:21;;;;;;;27.05;4.62;;;;;;;20.06;65.06;101336.53;1830969;78;25745;-62
2021/07/10 03:52:50;;;;;;;21.00;4.65;;;;;;;20.08;64.94;101333.61;1829615;77;27839;-61
2021/07/10 03:55:18;;;;;;;23.12;4.55;;;;;;;20.09;64.83;101336.67;1826659;78;25697;-61
2021/07/10 03:57:46;;;;;;;28.55;5.00;;;;;;;20.09;64.85;101336.67;1827147;78;26531;-61
2021/07/10 04:00:18;;;;;;;21.87;5.37;;;;;;;20.11;64.87;101336.81;1828643;77;26333;-61
2021/07/10 04:02:45;;;;;;;23.07;5.30;;;;;;;20.14;64.79;101341.05;1828601;78;25885;-61
2021/07/10 04:05:12;;;;;;;15.80;5.70;;;;;;;20.16;64.82;101336.26;1827434;77;27474;-61
2021/07/10 04:07:40;;;;;;;18.30;6.05;;;;;;;20.18;64.81;101332.83;1827062;78;27231;-61
2021/07/10 04:10:10;;;;;;;19.87;5.42;;;;;;;20.20;64.89;101336.23;1834633;78;25797;-61
2021/07/10 04:12:37;;;;;;;27.42;5.85;;;;;;;20.23;65.00;101337.20;1822851;78;26118;-61
2021/07/10 04:15:06;;;;;;;23.77;6.62;;;;;;;20.28;65.15;101331.18;1831168;78;25704;-61
2021/07/10 04:17:33;;;;;;;20.55;6.25;;;;;;;20.35;65.25;101334.02;1827141;78;27444;-61
2021/07/10 04:20:00;;;;;;;26.45;5.60;;;;;;;20.40;65.67;101333.80;1827420;78;25694;-60
2021/07/10 04:22:28;;;;;;;17.87;6.10;;;;;;;20.48;65.71;101328.77;1826936;78;25726;-62
2021/07/10 04:24:55;;;;;;;29.37;7.20;;;;;;;20.56;65.78;101329.17;1829356;77;25693;-61
2021/07/10 04:27:22;;;;;;;21.12;6.83;;;;;;;20.62;65.73;101333.87;1829858;78;25689;-61
2021/07/10 04:29:49;;;;;;;29.27;6.37;;;;;;;20.70;65.79;101334.30;1836148;78;26703;-61
2021/07/10 04:32:17;;;;;;;15.35;6.10;;;;;;;20.78;65.71;101334.23;1835541;78;25711;-61
2021/07/10 04:34:50;;;;;;;23.22;7.22;;;;;;;20.87;65.69;101334.98;1832625;78;25789;-65
2021/07/10 04:37:23;;;;;;;14.20;6.60;;;;;;;20.95;65.75;101336.24;1821452;77;25738;-64
2021/07/10 04:39:52;;;;;;;18.77;6.08;;;;;;;21.02;65.59;101331.70;1829654;77;25797;-62
2021/07/10 04:42:24;;;;;;;19.00;5.17;;;;;;;21.08;65.44;101328.18;1832555;77;27478;-64
2021/07/10 04:44:53;;;;;;;15.23;5.45;;;;;;;21.16;65.28;101328.59;1827487;78;25746;-62
2021/07/10 04:47:22;;;;;;;18.25;5.33;;;;;;;21.23;65.03;101329.52;1832580;77;25786;-63
2021/07/10 04:49:48;;;;;;;13.38;5.62;;;;;;;21.32;64.80;101326.66;1827506;78;26007;-61
2021/07/10 04:52:15;;;;;;;9.83;5.10;;;;;;;21.38;64.70;101321.80;1832136;78;25813;-61
2021/07/10 04:54:43;;;;;;;16.17;5.65;;;;;;;21.37;64.14;101322.30;1828963;77;27462;-61
2021/07/10 04:57:09;;;;;;;15.03;5.95;;;;;;;21.39;64.02;101318.85;1832590;78;25780;-61
2021/07/10 04:59:36;;;;;;;23.98;6.92;;;;;;;21.36;63.78;101317.86;1832529;77;25737;-61
2021/07/10 05:02:04;;;;;;;11.73;5.40;;;;;;;21.38;63.80;101323.16;1834018;78;25694;-61
2021/07/10 05:04:31;;;;;;;14.93;6.17;;;;;;;21.42;63.84;101324.45;1823358;77;25753;-61
2021/07/10 05:06:58;;;;;;;19.75;6.15;;;;;;;21.44;63.95;101325.11;1828897;78;27434;-64
2021/07/10 05:09:25;;;;;;;14.15;6.42;;;;;;;21.46;63.88;101320.80;1827165;77;25741;-61
2021/07/10 05:11:52;;;;;;;25.20;6.25;;;;;;;21.47;63.77;101323.87;1828046;78;25735;-61
2021/07/10 05:14:19;;;;;;;17.15;6.15;;;;;;;21.49;63.90;101318.52;1830712;78;26226;-60
2021/07/10 05:16:47;;;;;;;17.67;6.17;;;;;;;21.53;64.18;101325.30;1827202;78;25741;-61
2021/07/10 05:19:14;;;;;;;13.90;6.22;;;;;;;21.55;63.76;101321.86;1826210;78;27475;-61
2021/07/10 05:21:41;;;;;;;17.85;6.25;;;;;;;21.62;63.84;101325.20;1828166;78;25821;-61
2021/07/10 05:24:08;;;;;;;18.23;6.08;;;;;;;21.70;64.04;101323.16;1832400;78;25731;-63
2021/07/10 05:26:35;;;;;;;23.55;6.87;;;;;;;21.79;64.31;101333.47;1832291;78;25842;-65
2021/07/10 05:29:05;;;;;;;19.73;6.20;;;;;;;21.86;64.21;101326.16;1830072;77;25806;-62
2021/07/10 05:31:33;;;;;;;19.77;5.28;;;;;;;21.92;64.29;101325.05;1829259;78;27455;-61
2021/07/10 05:34:00;;;;;;;12.58;5.17;;;;;;;22.01;64.34;101330.17;1826035;78;25461;-61
2021/07/10 05:36:27;;;;;;;26.15;5.80;;;;;;;22.11;64.33;101330.35;1834125;77;25718;-60
2021/07/10 05:38:54;;;;;;;30.25;5.55;;;;;;;22.19;64.32;101324.72;1827361;77;25716;-61
2021/07/10 05:41:22;;;;;;;19.30;6.10;;;;;;;22.27;64.25;101318.25;1818929;78;25756;-61
2021/07/10 05:43:49;;;;;;;23.57;5.05;;;;;;;22.37;64.16;101324.19;1824903;78;27087;-61
2021/07/10 05:46:16;;;;;;;30.25;6.40;;;;;;;22.43;64.18;101327.55;1818768;78;25877;-61
2021/07/10 05:48:43;;;;;;;26.45;5.80;;;;;;;22.51;63.99;101326.52;1814447;77;25816;-61
2021/07/10 05:51:10;;;;;;;21.82;5.72;;;;;;;22.56;63.92;101317.69;1815113;78;25758;-61
2021/07/10 05:53:37;;;;;;;24.63;5.80;;;;;;;22.60;63.55;101318.45;1818915;77;25501;-61
2021/07/10 05:56:04;;;;;;;41.83;7.08;;;;;;;22.65;63.56;101315.10;1812067;78;27469;-61
2021/07/10 05:58:31;;;;;;;14.87;5.35;;;;;;;22.71;63.43;101323.05;1819796;78;25802;-60
2021/07/10 06:00:58;;;;;;;19.57;5.10;;;;;;;22.76;63.26;101323.30;1821615;78;25801;-61
2021/07/10 06:03:25;;;;;;;21.10;5.28;;;;;;;22.79;63.05;101318.75;1817370;78;25713;-61
2021/07/10 06:05:53;;;;;;;13.00;5.22;;;;;;;22.82;62.92;101323.84;1815437;77;26415;-61
2021/07/10 06:08:19;;;;;;;16.40;5.72;;;;;;;22.87;62.80;101321.86;1811063;78;27474;-61
2021/07/10 06:10:47;;;;;;;30.25;7.62;;;;;;;22.92;62.56;101323.45;1817171;78;25907;-61
2021/07/10 06:13:15;;;;;;;27.45;8.28;;;;;;;22.97;62.27;101331.38;1814385;78;25852;-61
2021/07/10 06:15:41;;;;;;;22.73;8.75;;;;;;;23.04;61.93;101328.67;1812885;78;25917;-61
2021/07/10 06:18:09;;;;;;;48.40;10.10;;;;;;;23.11;61.96;101326.80;1818968;77;25726;-61
2021/07/10 06:20:37;;;;;;;27.62;6.60;;;;;;;23.16;61.62;101325.34;1792339;78;27532;-60
2021/07/10 06:23:06;;;;;;;21.50;5.08;;;;;;;23.22;61.11;101326.73;1815405;78;25890;-61
2021/07/10 06:25:35;;;;;;;22.42;5.72;;;;;;;23.30;60.50;101325.72;1821568;78;25982;-61
2021/07/10 06:28:05;;;;;;;15.23;5.17;;;;;;;23.39;60.05;101327.76;1815400;78;26434;-61
2021/07/10 06:30:33;;;;;;;19.65;4.95;;;;;;;23.45;59.71;101325.00;1816776;78;25823;-61
2021/07/10 06:33:01;;;;;;;13.22;4.25;;;;;;;23.53;59.30;101324.51;1822164;78;27441;-61
2021/07/10 06:35:28;;;;;;;23.25;5.85;;;;;;;23.60;58.84;101332.22;1821125;78;25699;-61
2021/07/10 06:37:55;;;;;;;16.23;4.72;;;;;;;23.68;59.01;101325.15;1820495;78;25595;-61
2021/07/10 06:40:25;;;;;;;15.48;4.03;;;;;;;23.76;59.03;101326.31;1825522;78;25726;-61
2021/07/10 06:42:52;;;;;;;13.65;3.72;;;;;;;23.81;58.65;101327.05;1833149;78;25797;-61
2021/07/10 06:45:23;;;;;;;16.75;4.45;;;;;;;23.87;57.79;101329.48;1832661;77;27465;-61
2021/07/10 06:47:50;;;;;;;15.98;4.08;;;;;;;23.94;57.72;101334.99;1826969;77;25808;-61
2021/07/10 06:50:21;;;;;;;22.60;3.65;;;;;;;24.02;57.08;101337.02;1832457;78;25736;-61
2021/07/10 06:52:48;;;;;;;15.98;3.62;;;;;;;24.10;57.00;101337.84;1831211;78;25788;-60
2021/07/10 06:55:17;;;;;;;17.73;4.25;;;;;;;24.16;56.96;101332.35;1828508;78;25808;-60
2021/07/10 06:57:45;;;;;;;23.45;3.72;;;;;;;24.20;56.99;101325.38;1816887;78;27511;-60
2021/07/10 07:00:17;;;;;;;15.38;3.27;;;;;;;24.28;56.32;101326.21;1830229;78;25790;-60
2021/07/10 07:02:44;;;;;;;24.40;4.00;;;;;;;24.38;56.24;101328.83;1821004;77;25798;-60
2021/07/10 07:05:13;;;;;;;12.98;3.40;;;;;;;24.46;55.96;101334.63;1832289;77;25655;-60
2021/07/10 07:07:40;;;;;;;18.35;3.80;;;;;;;24.55;54.77;101332.48;1828795;78;25946;-60
2021/07/10 07:10:10;;;;;;;11.03;3.20;;;;;;;24.63;54.27;101331.41;1828859;77;28061;-61
2021/07/10 07:12:38;;;;;;;23.18;7.15;;;;;;;24.71;53.80;101330.34;1832910;77;25705;-61
2021/07/10 07:15:08;;;;;;;19.05;3.55;;;;;;;24.79;53.17;101330.95;1814906;79;25860;-60
2021/07/10 07:17:35;;;;;;;9.88;3.47;;;;;;;24.90;52.18;101331.34;1822230;78;25936;-61
2021/07/10 07:20:06;;;;;;;14.58;2.87;;;;;;;25.02;52.07;101325.98;1839909;78;25714;-61
2021/07/10 07:22:34;;;;;;;10.23;3.10;;;;;;;25.14;52.13;101327.00;1839655;78;27516;-61
2021/07/10 07:25:03;;;;;;;17.60;4.10;;;;;;;25.23;51.96;101328.43;1839749;78;25747;-60
2021/07/10 07:27:30;;;;;;;12.82;2.72;;;;;;;25.34;51.22;101326.02;1828816;78;25481;-60
2021/07/10 07:29:57;;;;;;;12.23;3.00;;;;;;;25.43;50.87;101321.95;1820330;78;25715;-60
2021/07/10 07:32:24;;;;;;;20.37;3.77;;;;;;;25.53;50.73;101322.31;1803846;78;25716;-60
2021/07/10 07:34:51;;;;;;;17.35;2.67;;;;;;;25.65;49.68;101325.19;1805975;78;28262;-60
2021/07/10 07:37:20;;;;;;;8.98;3.08;;;;;;;25.76;49.92;101326.41;1821011;78;26617;-61
2021/07/10 07:39:47;;;;;;;8.18;2.45;;;;;;;25.87;48.73;101328.95;1825200;77;25663;-61
2021/07/10 07:42:16;;;;;;;8.68;2.47;;;;;;;25.96;47.84;101323.98;1814970;77;25781;-60
2021/07/10 07:44:44;;;;;;;5.15;2.30;;;;;;;26.13;45.63;101332.05;1811872;78;26059;-61
2021/07/10 07:47:14;;;;;;;14.03;2.55;;;;;;;26.29;44.75;101331.98;1803165;78;27437;-61
2021/07/10 07:49:43;;;;;;;16.27;3.22;;;;;;;26.43;44.76;101329.92;1802523;79;25777;-61
2021/07/10 07:52:10;;;;;;;9.10;2.58;;;;;;;26.58;44.18;101328.72;1802512;79;25788;-61
2021/07/10 07:54:38;;;;;;;17.80;2.62;;;;;;;26.75;43.03;101339.45;1813638;78;26269;-61
2021/07/10 07:57:06;;;;;;;27.40;2.85;;;;;;;26.89;41.67;101339.30;1829865;77;25453;-61
2021/07/10 07:59:33;;;;;;;25.80;2.47;;;;;;;27.01;42.48;101336.90;1829000;77;28192;-60
2021/07/10 08:02:00;;;;;;;10.48;2.70;;;;;;;27.15;43.16;101338.95;1827492;78;25832;-60
2021/07/10 08:04:27;;;;;;;10.65;2.45;;;;;;;27.26;40.90;101342.00;1832614;77;25730;-61
2021/07/10 08:06:54;;;;;;;15.80;2.10;;;;;;;27.35;41.11;101337.83;1820789;78;25852;-61
2021/07/10 08:09:21;;;;;;;28.92;3.00;;;;;;;27.51;41.23;101329.45;1826464;78;25753;-61
2021/07/10 08:11:48;;;;;;;19.40;3.05;;;;;;;27.69;40.70;101338.18;1832323;78;27447;-61
2021/07/10 08:14:15;;;;;;;18.80;2.60;;;;;;;27.92;39.62;101331.02;1832044;78;25460;-61
2021/07/10 08:16:42;;;;;;;18.67;2.47;;;;;;;28.10;39.68;101335.09;1829185;78;25749;-61
2021/07/10 08:19:09;;;;;;;21.02;3.20;;;;;;;28.28;39.38;101331.89;1835919;78;25702;-61
2021/07/10 08:21:37;;;;;;;13.45;2.70;;;;;;;28.47;39.19;101333.97;1825175;78;25708;-61
2021/07/10 08:24:05;;;;;;;11.68;3.15;;;;;;;28.63;38.64;101328.23;1835771;78;27452;-61
2021/07/10 08:26:32;;;;;;;13.00;3.35;;;;;;;28.78;39.24;101328.28;1839675;78;25791;-61
2021/07/10 08:29:00;;;;;;;27.80;3.40;;;;;;;28.94;38.45;101323.91;1826551;78;25662;-61
2021/07/10 08:31:28;;;;;;;16.65;3.25;;;;;;;29.07;38.63;101322.21;1828157;77;25510;-61
2021/07/10 08:33:55;;;;;;;17.30;3.17;;;;;;;29.24;38.68;101326.42;1829442;77;25793;-61
2021/07/10 08:36:22;;;;;;;11.93;3.87;;;;;;;29.43;38.16;101313.77;1763438;79;27156;-62
2021/07/10 08:38:49;;;;;;;11.68;3.25;;;;;;;29.64;37.62;101318.56;1799569;79;25812;-61
2021/07/10 08:41:16;;;;;;;8.30;2.67;;;;;;;29.76;37.70;101322.66;1806419;79;25954;-61
2021/07/10 08:43:44;;;;;;;14.23;3.67;;;;;;;29.86;37.13;101320.59;1833642;77;25856;-62
2021/07/10 08:46:13;;;;;;;9.40;3.10;;;;;;;29.90;35.69;101318.14;1820672;77;25730;-61
2021/07/10 08:48:41;;;;;;;10.50;2.92;;;;;;;29.89;35.31;101320.63;1830053;77;27433;-61
2021/07/10 08:51:08;;;;;;;26.45;3.75;;;;;;;30.00;35.71;101317.48;1834585;77;25820;-61
2021/07/10 08:53:35;;;;;;;9.40;3.00;;;;;;;30.17;35.50;101319.69;1836372;77;25753;-61
2021/07/10 08:56:02;;;;;;;11.05;2.98;;;;;;;30.29;35.44;101316.27;1832575;77;25537;-61
2021/07/10 08:58:29;;;;;;;21.93;3.42;;;;;;;30.42;35.11;101316.45;1829757;77;25777;-61
2021/07/10 09:00:56;;;;;;;15.03;2.83;;;;;;;30.62;34.44;101306.73;1820375;77;27473;-62
2021/07/10 09:03:23;;;;;;;11.15;3.00;;;;;;;30.75;34.32;101313.84;1820249;78;25753;-61
2021/07/10 09:05:53;;;;;;;7.00;2.62;;;;;;;30.93;33.18;101310.43;1844149;77;25465;-61
2021/07/10 09:08:29;;;;;;;15.78;3.17;;;;;;;31.11;33.18;101307.33;1848640;77;27626;-61
2021/07/10 09:11:06;;;;;;;7.95;2.52;;;;;;;31.20;33.23;101311.31;1847130;77;25701;-61
2021/07/10 09:13:42;;;;;;;14.30;2.83;;;;;;;31.38;32.05;101308.70;1789018;78;28215;-61
2021/07/10 09:16:26;;;;;;;11.97;3.27;;;;;;;31.62;32.21;101306.98;1835567;77;25794;-61
2021/07/10 09:19:00;;;;;;;10.20;3.10;;;;;;;31.79;31.89;101308.80;1834214;77;25805;-60
2021/07/10 09:21:48;;;;;;;5.95;2.30;;;;;;;31.88;31.13;101308.59;1847171;77;26178;-61
2021/07/10 09:24:37;;;;;;;12.70;3.05;;;;;;;32.02;30.07;101304.80;1834104;77;25757;-60
2021/07/10 09:27:08;;;;;;;5.33;2.60;;;;;;;32.08;30.03;101295.94;1838456;77;27554;-60
2021/07/10 09:29:43;;;;;;;9.33;2.58;;;;;;;32.08;30.88;101298.15;1848480;77;26476;-60
2021/07/10 09:32:21;;;;;;;16.85;3.30;;;;;;;32.18;31.23;101296.53;1801634;77;25755;-61
2021/07/10 09:34:52;;;;;;;12.78;2.52;;;;;;;32.21;31.27;101289.05;1836304;77;25852;-60
2021/07/10 09:37:31;;;;;;;14.43;2.55;;;;;;;32.15;30.96;101289.00;1820121;77;25714;-60
2021/07/10 09:40:10;;;;;;;8.48;2.45;;;;;;;32.25;30.75;101292.98;1830097;77;27450;-60
2021/07/10 09:42:44;;;;;;;9.70;2.90;;;;;;;32.16;30.73;101294.86;1822910;77;25717;-61
2021/07/10 09:45:22;;;;;;;4.12;2.10;;;;;;;32.14;30.76;101301.23;1829196;77;25836;-61
2021/07/10 09:47:50;;;;;;;9.43;2.67;;;;;;;32.13;30.68;101300.12;1840824;77;25920;-61
2021/07/10 09:50:20;;;;;;;11.30;2.22;;;;;;;32.25;30.58;101297.16;1839058;77;25820;-61
2021/07/10 09:52:50;;;;;;;8.33;2.42;;;;;;;32.66;31.04;101293.19;1839520;78;28225;-61
2021/07/10 09:55:19;;;;;;;20.57;2.60;;;;;;;32.76;30.42;101298.80;1836896;78;25860;-62
2021/07/10 09:57:47;;;;;;;15.40;3.12;;;;;;;33.24;29.95;101293.08;1839621;77;25969;-62
2021/07/10 10:00:18;;;;;;;8.68;2.37;;;;;;;33.90;29.03;101285.56;1839417;78;25784;-60
2021/07/10 10:02:54;;;;;;;7.03;2.65;;;;;;;34.26;28.52;101285.48;1813420;78;25789;-62
2021/07/10 10:05:28;;;;;;;13.50;2.30;;;;;;;34.62;28.05;101282.57;1823788;78;27476;-60
2021/07/10 10:07:59;;;;;;;10.25;2.55;;;;;;;35.12;26.84;101282.59;1838209;78;25879;-61
2021/07/10 10:10:31;;;;;;;9.78;3.08;;;;;;;35.50;24.62;101274.49;1839549;78;25789;-62
2021/07/10 10:13:09;;;;;;;11.97;2.40;;;;;;;35.61;25.59;101286.42;1838673;78;26135;-61
2021/07/10 10:15:46;;;;;;;11.43;2.42;;;;;;;35.87;24.79;101280.56;1839607;77;25742;-61
2021/07/10 10:18:18;;;;;;;22.35;3.30;;;;;;;36.11;24.47;101278.41;1839799;78;27455;-61
2021/07/10 10:20:48;;;;;;;25.75;8.80;;;;;;;36.47;24.69;101266.21;1839440;77;25734;-61
2021/07/10 10:23:18;;;;;;;28.12;4.53;;;;;;;36.89;24.50;101262.85;1820349;78;25765;-61
2021/07/10 10:25:47;;;;;;;7.45;2.42;;;;;;;37.53;24.06;101269.42;1839535;78;26077;-62
2021/07/10 10:28:19;;;;;;;16.17;2.98;;;;;;;38.19;23.17;101267.34;1839698;77;25759;-60
2021/07/10 10:30:51;;;;;;;;;;;;;;;38.82;23.05;101261.28;1842718;78;28393;-60
2021/07/10 10:33:20;;;;;;;11.40;2.55;;;;;;;38.96;22.38;101262.05;1839784;78;25456;-60
2021/07/10 10:35:53;;;;;;;8.28;2.33;;;;;;;38.63;22.36;101259.42;1837713;78;25761;-60
2021/07/10 10:38:22;;;;;;;21.33;3.17;;;;;;;38.52;21.95;101255.17;1842343;77;26193;-61
2021/07/10 10:40:53;;;;;;;13.22;2.90;;;;;;;38.21;22.38;101255.23;1842969;77;26240;-61
2021/07/10 10:43:25;;;;;;;9.55;2.30;;;;;;;37.83;22.80;101251.77;1842541;77;28108;-61
2021/07/10 10:45:51;;;;;;;11.90;3.05;;;;;;;37.25;23.12;101253.91;1839901;77;25840;-61
2021/07/10 10:48:40;;;;;;;11.75;3.27;;;;;;;36.64;23.37;101257.31;1839664;78;25769;-61
2021/07/10 10:51:26;;;;;;;13.03;2.50;;;;;;;36.43;23.87;101253.11;1839484;78;25710;-61
2021/07/10 10:54:01;;;;;;;6.03;2.70;;;;;;;37.25;23.33;101246.31;1800528;79;25969;-61
2021/07/10 10:56:40;;;;;;;6.60;1.98;;;;;;;38.15;22.47;101250.02;1785606;79;27457;-61
2021/07/10 10:59:40;;;;;;;14.15;2.02;;;;;;;38.85;21.31;101243.78;1806316;79;25723;-61
2021/07/10 11:02:34;;;;;;;12.85;2.30;;;;;;;39.43;20.88;101248.27;1802782;78;25497;-61
2021/07/10 11:05:02;;;;;;;4.83;2.15;;;;;;;40.19;20.44;101245.95;1821578;78;25781;-61
2021/07/10 11:07:36;;;;;;;7.25;2.65;;;;;;;40.86;19.94;101245.89;1817273;78;25712;-62
2021/07/10 11:10:15;;;;;;;14.40;2.27;;;;;;;41.39;19.64;101239.61;1815042;78;27443;-61
2021/07/10 11:12:53;;;;;;;14.98;2.55;;;;;;;41.76;18.76;101236.38;1815143;79;25722;-61
2021/07/10 11:15:38;;;;;;;7.90;2.17;;;;;;;42.07;18.79;101235.25;1823184;77;25789;-61
2021/07/10 11:18:08;;;;;;;8.15;2.10;;;;;;;41.88;18.86;101230.82;1836295;78;25946;-62
2021/07/10 11:20:50;;;;;;;10.45;2.10;;;;;;;41.97;18.83;101225.74;1829030;78;25795;-61
2021/07/10 11:23:33;;;;;;;12.20;2.80;;;;;;;42.46;17.79;101223.31;1826973;78;27503;-61
2021/07/10 11:26:14;;;;;;;24.43;2.80;;;;;;;42.83;17.49;101213.64;1821593;78;25931;-61
2021/07/10 11:28:50;;;;;;;16.37;2.72;;;;;;;42.85;17.72;101225.45;1833813;78;25720;-62